createdAt,value
2022-09-24T05:04:16.336Z,16.50
2022-09-24T05:09:19.898Z,16.50
2022-09-24T05:14:23.441Z,16.40
2022-09-24T05:19:28.417Z,16.40
2022-09-24T05:24:31.934Z,16.40
2022-09-24T05:29:35.615Z,16.40
2022-09-24T05:34:41.545Z,16.40
2022-09-24T05:39:45.259Z,16.40
2022-09-24T05:44:52.265Z,16.40
2022-09-24T05:49:57.411Z,16.30
2022-09-24T05:55:00.984Z,16.30
2022-09-24T06:00:06.188Z,16.30
2022-09-24T06:05:16.753Z,16.30
2022-09-24T06:10:20.848Z,16.30
2022-09-24T06:15:26.532Z,16.40
2022-09-24T06:20:31.447Z,16.40
2022-09-24T06:25:35.361Z,16.40
2022-09-24T06:30:40.300Z,16.50
2022-09-24T06:35:45.914Z,16.60
2022-09-24T06:40:49.553Z,16.60
2022-09-24T06:45:56.324Z,16.60
2022-09-24T06:51:01.291Z,16.70
2022-09-24T06:56:04.938Z,16.60
2022-09-24T07:01:09.135Z,16.70
2022-09-24T07:06:14.182Z,16.70
2022-09-24T07:11:17.740Z,16.70
2022-09-24T07:16:21.362Z,16.80
2022-09-24T07:21:26.369Z,16.80
2022-09-24T07:26:30.193Z,16.90
2022-09-24T07:31:36.599Z,16.90
2022-09-24T07:36:41.814Z,16.90
2022-09-24T07:41:45.903Z,17.00
2022-09-24T07:46:49.836Z,17.10
2022-09-24T07:51:55.204Z,17.20
2022-09-24T07:56:58.952Z,17.30
2022-09-24T08:02:03.013Z,17.40
2022-09-24T08:07:08.022Z,17.50
2022-09-24T08:12:12.901Z,17.50
2022-09-24T08:17:17.372Z,17.50
2022-09-24T08:22:22.262Z,17.50
2022-09-24T08:27:26.447Z,17.50
2022-09-24T08:32:30.347Z,17.60
2022-09-24T08:37:35.296Z,17.70
2022-09-24T08:42:49.548Z,17.90
2022-09-24T08:47:57.319Z,18.00
2022-09-24T08:53:13.875Z,18.10
2022-09-24T08:58:40.492Z,18.30
2022-09-24T09:03:50.385Z,18.50
2022-09-24T09:09:07.637Z,18.90
2022-09-24T09:14:17.646Z,19.20
2022-09-24T09:19:27.643Z,19.50
2022-09-24T09:24:42.189Z,19.70
2022-09-24T09:29:48.198Z,19.90
2022-09-24T09:35:01.218Z,20.00
2022-09-24T09:40:20.561Z,20.00
2022-09-24T09:45:32.520Z,20.30
2022-09-24T09:50:41.138Z,20.50
2022-09-24T09:55:53.715Z,20.50
2022-09-24T10:01:06.927Z,20.50
2022-09-24T10:06:12.181Z,20.60
2022-09-24T10:11:19.025Z,20.70
2022-09-24T10:16:22.648Z,20.80
2022-09-24T10:21:34.446Z,21.00
2022-09-24T10:26:44.964Z,21.30
2022-09-24T10:31:49.902Z,21.60
2022-09-24T10:36:59.031Z,22.10
2022-09-24T10:42:05.378Z,22.70
2022-09-24T10:47:21.151Z,23.20
2022-09-24T10:52:43.294Z,23.50
2022-09-24T10:57:59.903Z,23.90
2022-09-24T11:03:38.695Z,24.40
2022-09-24T11:08:57.396Z,24.70
2022-09-24T11:14:18.261Z,25.30
2022-09-24T11:19:37.793Z,25.70
2022-09-24T11:24:58.931Z,26.20
2022-09-24T11:30:12.308Z,26.60
2022-09-24T11:35:35.534Z,26.80
2022-09-24T11:40:52.026Z,27.10
2022-09-24T11:46:18.400Z,27.40
2022-09-24T11:51:30.779Z,27.80
2022-09-24T11:56:38.708Z,28.20
2022-09-24T12:01:49.965Z,28.40
2022-09-24T12:06:58.935Z,28.60
2022-09-24T12:12:07.889Z,28.70
2022-09-24T12:17:22.433Z,28.80
2022-09-24T12:22:28.104Z,28.80
2022-09-24T12:27:35.774Z,28.90
2022-09-24T12:32:56.146Z,28.80
2022-09-24T12:38:04.481Z,28.70
2022-09-24T12:43:18.930Z,27.90
2022-09-24T12:48:26.960Z,27.10
2022-09-24T12:53:35.697Z,26.90
2022-09-24T12:58:41.505Z,27.40
2022-09-24T13:03:47.580Z,27.90
2022-09-24T13:08:51.827Z,28.00
2022-09-24T13:14:07.009Z,27.60
2022-09-24T13:19:26.264Z,27.20
2022-09-24T13:24:31.489Z,27.00
2022-09-24T13:29:39.876Z,27.00
2022-09-24T13:34:47.236Z,26.80
2022-09-24T13:39:57.010Z,26.70
2022-09-24T13:45:07.485Z,26.70
2022-09-24T13:50:19.789Z,26.80
2022-09-24T13:55:26.199Z,27.10
2022-09-24T14:00:32.276Z,27.20
2022-09-24T14:05:38.207Z,27.20
2022-09-24T14:10:42.478Z,27.10
2022-09-24T14:15:56.459Z,26.40
2022-09-24T14:21:07.384Z,26.20
2022-09-24T14:26:27.326Z,26.20
2022-09-24T14:31:31.241Z,26.20
2022-09-24T14:36:38.286Z,25.50
2022-09-24T14:41:41.860Z,24.70
2022-09-24T14:46:49.841Z,24.10
2022-09-24T14:51:57.126Z,23.60
2022-09-24T14:57:12.181Z,23.10
2022-09-24T15:02:20.432Z,22.90
2022-09-24T15:07:27.220Z,23.00
2022-09-24T15:12:33.829Z,22.70
2022-09-24T15:17:37.795Z,22.40
2022-09-24T15:22:42.716Z,22.20
2022-09-24T15:27:46.725Z,22.10
2022-09-24T15:32:51.249Z,22.00
2022-09-24T15:37:56.466Z,22.00
2022-09-24T15:43:00.034Z,21.90
2022-09-24T15:48:03.886Z,21.50
2022-09-24T15:53:13.336Z,21.10
2022-09-24T15:58:19.592Z,20.80
2022-09-24T16:03:26.420Z,20.60
2022-09-24T16:08:31.290Z,20.60
2022-09-24T16:13:35.214Z,20.60
2022-09-24T16:18:39.876Z,20.60
2022-09-24T16:23:44.802Z,20.60
2022-09-24T16:28:50.177Z,20.60
2022-09-24T16:33:54.190Z,20.60
2022-09-24T16:39:00.184Z,20.60
2022-09-24T16:44:04.421Z,20.60
2022-09-24T16:49:08.240Z,20.40
2022-09-24T16:54:13.883Z,20.40
2022-09-24T16:59:18.187Z,20.40
2022-09-24T17:04:22.648Z,20.30
2022-09-24T17:09:45.404Z,20.20
2022-09-24T17:14:48.965Z,20.10
2022-09-24T17:19:52.489Z,20.00
2022-09-24T17:24:57.348Z,19.90
2022-09-24T17:30:00.867Z,19.80
2022-09-24T17:35:04.829Z,19.70
2022-09-24T17:40:11.138Z,19.50
2022-09-24T17:45:14.839Z,19.40
2022-09-24T17:50:18.439Z,19.30
2022-09-24T17:55:23.441Z,19.20
2022-09-24T18:00:27.065Z,19.10
2022-09-24T18:05:30.570Z,19.00
2022-09-24T18:10:36.035Z,18.90
2022-09-24T18:15:39.621Z,18.80
2022-09-24T18:20:43.235Z,18.70
2022-09-24T18:25:48.330Z,18.60
2022-09-24T18:31:05.852Z,18.60
2022-09-24T18:36:12.301Z,18.50
2022-09-24T18:41:21.016Z,18.40
2022-09-24T18:46:24.823Z,18.40
2022-09-24T18:51:30.501Z,18.30
2022-09-24T18:56:36.326Z,18.20
2022-09-24T19:01:41.356Z,18.10
2022-09-24T19:06:48.128Z,18.00
2022-09-24T19:11:53.645Z,17.90
2022-09-24T19:16:57.342Z,17.80
2022-09-24T19:22:00.883Z,17.70
2022-09-24T19:27:05.886Z,17.60
2022-09-24T19:32:11.723Z,17.50
2022-09-24T19:37:15.236Z,17.40
2022-09-24T19:42:20.105Z,17.40
2022-09-24T19:47:23.878Z,17.30
2022-09-24T19:52:27.475Z,17.30
2022-09-24T19:57:34.958Z,17.20
2022-09-24T20:02:38.655Z,17.20
2022-09-24T20:07:42.521Z,17.20
2022-09-24T20:12:51.732Z,17.30
2022-09-24T20:17:56.303Z,17.30
2022-09-24T20:22:59.728Z,17.30
2022-09-24T20:28:04.777Z,17.30
2022-09-24T20:33:10.154Z,17.30
2022-09-24T20:38:13.691Z,17.30
2022-09-24T20:43:18.572Z,17.30
2022-09-24T20:48:22.072Z,17.40
2022-09-24T20:53:25.689Z,17.40
2022-09-24T20:58:30.592Z,17.40
2022-09-24T21:03:44.939Z,17.40
2022-09-24T21:08:49.255Z,17.50
2022-09-24T21:13:56.251Z,17.60
2022-09-24T21:19:00.869Z,17.60
2022-09-24T21:24:05.888Z,17.60
2022-09-24T21:29:12.029Z,17.60
2022-09-24T21:34:16.700Z,17.60
2022-09-24T21:39:23.049Z,17.60
2022-09-24T21:44:32.059Z,17.50
2022-09-24T21:49:36.477Z,17.50
2022-09-24T21:54:39.994Z,17.50
2022-09-24T22:00:09.963Z,17.40
2022-09-24T22:05:16.569Z,17.30
2022-09-24T22:10:20.099Z,17.20
2022-09-24T22:15:25.052Z,17.10
2022-09-24T22:20:29.518Z,17.10
2022-09-24T22:25:33.022Z,17.00
